Time;durP1;ratioP1;P1;durP2;ratioP2;P2;SDS_P1;SDS_P2;PMS_P1;PMS_P2;Temp;Humidity;BMP_temperature;BMP_pressure;BME280_temperature;BME280_humidity;BME280_pressure;Samples;Min_cycle;Max_cycle;Signal;HPM_P1;HPM_P2
2022/09/22 00:01:26;;;;;;;3.55;2.90;;;9.60;99.90;;;;;;5013226;28;20032;-57
2022/09/22 00:03:55;;;;;;;3.15;2.85;;;9.70;99.90;;;;;;5012916;28;20061;-58
2022/09/22 00:06:27;;;;;;;7.50;3.40;;;9.70;99.90;;;;;;5013666;28;20041;-58
2022/09/22 00:09:01;;;;;;;3.75;2.63;;;9.70;99.90;;;;;;5013158;28;20030;-59
2022/09/22 00:11:29;;;;;;;3.72;3.30;;;9.60;99.90;;;;;;5013309;28;20107;-57
2022/09/22 00:13:59;;;;;;;4.18;3.42;;;9.50;99.90;;;;;;5012905;28;20033;-55
2022/09/22 00:16:37;;;;;;;6.30;2.97;;;9.50;99.90;;;;;;5013085;28;20125;-57
2022/09/22 00:19:07;;;;;;;2.90;2.67;;;9.40;99.90;;;;;;5012993;28;20034;-58
2022/09/22 00:21:33;;;;;;;4.18;3.08;;;9.40;99.90;;;;;;5012786;28;20034;-56
2022/09/22 00:24:03;;;;;;;6.13;3.42;;;9.30;99.90;;;;;;5012710;28;20029;-57
2022/09/22 00:26:30;;;;;;;3.25;2.95;;;9.30;99.90;;;;;;5028048;28;20120;-57
2022/09/22 00:28:55;;;;;;;10.68;3.95;;;9.30;99.90;;;;;;5012844;28;20018;-60
2022/09/22 00:31:24;;;;;;;4.53;3.25;;;9.30;99.90;;;;;;5012760;28;20032;-58
2022/09/22 00:33:51;;;;;;;3.88;3.28;;;9.20;99.90;;;;;;5027372;28;20159;-58
2022/09/22 00:36:18;;;;;;;8.15;3.35;;;9.20;99.90;;;;;;5012766;28;20033;-55
2022/09/22 00:38:45;;;;;;;5.30;3.10;;;9.20;99.90;;;;;;5012595;28;20117;-55
2022/09/22 00:41:36;;;;;;;5.50;3.35;;;9.20;99.90;;;;;;5012027;28;20511;-57
2022/09/22 00:44:30;;;;;;;3.33;2.92;;;9.20;99.90;;;;;;5027616;28;20473;-55
2022/09/22 00:47:27;;;;;;;7.10;3.47;;;9.20;99.90;;;;;;5027702;28;20018;-57
2022/09/22 00:50:03;;;;;;;6.97;3.22;;;9.10;99.90;;;;;;5012719;28;20080;-53
2022/09/22 00:52:45;;;;;;;4.38;3.67;;;9.10;99.90;;;;;;5012218;28;20034;-56
2022/09/22 00:55:16;;;;;;;7.65;3.70;;;9.10;99.90;;;;;;5012386;28;20109;-56
2022/09/22 00:57:43;;;;;;;3.50;3.20;;;9.20;99.90;;;;;;5012365;28;20606;-55
2022/09/22 01:00:10;;;;;;;9.52;3.47;;;9.20;99.90;;;;;;5012312;28;20034;-57
2022/09/22 01:02:36;;;;;;;6.10;3.70;;;9.10;99.90;;;;;;5011946;28;20037;-54
2022/09/22 01:05:03;;;;;;;4.05;3.33;;;9.00;99.90;;;;;;5012127;28;20065;-58
2022/09/22 01:08:12;;;;;;;4.10;3.70;;;9.00;99.90;;;;;;5027247;28;20117;-58
2022/09/22 01:10:38;;;;;;;4.93;3.47;;;9.00;99.90;;;;;;5009897;28;20088;-53
2022/09/22 01:13:25;;;;;;;5.05;4.18;;;8.90;99.90;;;;;;5027009;28;20026;-53
2022/09/22 01:16:17;;;;;;;5.03;4.32;;;8.90;99.90;;;;;;5012080;28;20051;-55
2022/09/22 01:18:52;;;;;;;8.38;3.80;;;8.90;99.90;;;;;;5027196;28;20033;-55
2022/09/22 01:21:41;;;;;;;9.20;3.63;;;8.90;99.90;;;;;;5027099;28;20026;-57
2022/09/22 01:24:44;;;;;;;9.07;4.25;;;9.00;99.90;;;;;;5011664;28;20017;-51
2022/09/22 01:27:29;;;;;;;7.65;3.75;;;9.00;99.90;;;;;;5027081;28;20049;-54
2022/09/22 01:30:18;;;;;;;6.93;4.47;;;9.00;99.90;;;;;;5027137;28;20049;-51
2022/09/22 01:33:06;;;;;;;4.72;4.10;;;8.90;99.90;;;;;;5011611;28;20639;-53
2022/09/22 01:36:08;;;;;;;5.43;4.15;;;8.90;99.90;;;;;;5011851;28;20026;-53
2022/09/22 01:39:04;;;;;;;5.03;4.30;;;8.90;99.90;;;;;;4989105;28;20088;-57
2022/09/22 01:41:58;;;;;;;5.45;4.80;;;8.80;99.90;;;;;;5012053;28;20112;-56
2022/09/22 01:44:40;;;;;;;7.10;3.97;;;8.80;99.90;;;;;;5011299;28;20057;-56
2022/09/22 01:47:10;;;;;;;6.32;3.97;;;8.70;99.90;;;;;;5011748;28;20486;-53
2022/09/22 01:49:40;;;;;;;7.22;4.38;;;8.60;99.90;;;;;;5011681;28;20370;-55
2022/09/22 01:52:11;;;;;;;7.25;3.95;;;8.50;99.90;;;;;;5011468;28;20025;-57
2022/09/22 01:54:42;;;;;;;6.63;4.68;;;8.50;99.90;;;;;;5026806;28;20037;-53
2022/09/22 01:57:20;;;;;;;9.05;3.90;;;8.40;99.90;;;;;;5011890;28;20048;-52
2022/09/22 01:59:51;;;;;;;4.57;3.72;;;8.40;99.90;;;;;;5026893;28;20026;-56
2022/09/22 02:02:43;;;;;;;4.03;3.67;;;8.30;99.90;;;;;;5009960;28;20034;-59
2022/09/22 02:05:18;;;;;;;4.72;4.10;;;8.30;99.90;;;;;;5003371;28;20033;-57
2022/09/22 02:07:50;;;;;;;6.15;4.32;;;8.30;99.90;;;;;;5011484;28;20030;-59
2022/09/22 02:10:19;;;;;;;4.65;4.00;;;8.20;99.90;;;;;;5026616;28;20022;-58
2022/09/22 02:12:45;;;;;;;8.90;3.80;;;8.20;99.90;;;;;;5011571;28;20437;-57
2022/09/22 02:18:00;;;;;;;6.72;4.00;;;8.30;99.90;;;;;;5011667;28;20032;-56
2022/09/22 02:20:26;;;;;;;7.13;4.47;;;8.30;99.90;;;;;;5011769;28;20026;-57
2022/09/22 02:22:52;;;;;;;4.72;3.80;;;8.20;99.90;;;;;;5026198;28;20405;-52
2022/09/22 02:25:19;;;;;;;5.20;3.83;;;8.20;99.90;;;;;;5010157;28;20053;-55
2022/09/22 02:27:46;;;;;;;4.60;3.63;;;8.20;99.90;;;;;;5026565;28;20520;-58
2022/09/22 02:30:13;;;;;;;5.50;3.72;;;8.20;99.90;;;;;;5011246;28;20033;-54
2022/09/22 02:32:45;;;;;;;6.70;4.38;;;8.20;99.90;;;;;;5011104;28;20034;-56
2022/09/22 02:35:11;;;;;;;5.10;4.30;;;8.20;99.90;;;;;;5011249;28;20038;-54
2022/09/22 02:37:52;;;;;;;4.45;3.63;;;8.20;99.90;;;;;;5011206;28;20036;-52
2022/09/22 02:40:22;;;;;;;10.02;4.05;;;8.20;99.90;;;;;;5009360;28;20065;-56
2022/09/22 02:43:20;;;;;;;5.35;4.18;;;8.20;99.90;;;;;;5011007;28;20030;-54
2022/09/22 02:45:52;;;;;;;5.10;4.10;;;8.20;99.90;;;;;;5011281;28;20393;-55
2022/09/22 02:48:23;;;;;;;6.57;3.88;;;8.20;99.90;;;;;;5011273;28;20037;-54
2022/09/22 02:50:49;;;;;;;7.25;4.05;;;8.20;99.90;;;;;;5011230;28;20057;-50
2022/09/22 02:53:16;;;;;;;5.18;3.85;;;8.20;99.90;;;;;;5010778;28;20030;-53
2022/09/22 02:55:44;;;;;;;4.90;3.92;;;8.20;99.90;;;;;;5026178;28;20034;-55
2022/09/22 02:58:11;;;;;;;5.07;3.35;;;8.20;99.90;;;;;;5014330;28;20050;-55
2022/09/22 03:00:37;;;;;;;3.33;3.03;;;8.20;99.90;;;;;;5014579;28;20037;-53
2022/09/22 03:03:04;;;;;;;5.35;3.75;;;8.20;99.90;;;;;;5014310;28;20564;-55
2022/09/22 03:05:29;;;;;;;5.88;4.05;;;8.30;99.90;;;;;;5014168;28;20109;-51
2022/09/22 03:07:55;;;;;;;3.80;3.47;;;8.30;99.90;;;;;;5014459;28;20565;-53
2022/09/22 03:10:20;;;;;;;5.13;3.85;;;8.40;99.90;;;;;;5014246;28;20018;-54
2022/09/22 03:12:46;;;;;;;8.10;4.03;;;8.30;99.90;;;;;;5014428;28;20080;-53
2022/09/22 03:15:13;;;;;;;4.68;3.50;;;8.30;99.90;;;;;;5014472;28;20037;-52
2022/09/22 03:17:40;;;;;;;5.97;3.78;;;8.40;99.90;;;;;;5014559;28;20486;-54
2022/09/22 03:20:09;;;;;;;3.90;3.35;;;8.30;99.90;;;;;;5015045;28;20485;-50
2022/09/22 03:22:35;;;;;;;4.50;3.25;;;8.30;99.90;;;;;;5014486;28;20018;-55
2022/09/22 03:25:01;;;;;;;5.75;3.53;;;8.30;99.90;;;;;;5030149;28;20044;-54
2022/09/22 03:27:26;;;;;;;4.65;3.83;;;8.20;99.90;;;;;;5015323;28;20034;-53
2022/09/22 03:29:53;;;;;;;4.60;3.30;;;8.30;99.90;;;;;;5029657;28;20117;-57
2022/09/22 03:32:20;;;;;;;4.30;3.90;;;8.30;99.90;;;;;;5013022;28;20021;-56
2022/09/22 03:34:45;;;;;;;5.38;4.25;;;8.40;99.90;;;;;;5014459;28;20485;-50
2022/09/22 03:37:11;;;;;;;8.93;3.63;;;8.30;99.90;;;;;;5014562;28;20048;-54
2022/09/22 03:39:36;;;;;;;3.88;3.45;;;8.30;99.90;;;;;;5013864;28;20497;-55
2022/09/22 03:42:02;;;;;;;6.45;3.50;;;8.30;99.90;;;;;;5026245;28;20054;-55
2022/09/22 03:44:27;;;;;;;6.03;3.67;;;8.20;99.90;;;;;;5018321;28;20379;-53
2022/09/22 03:46:53;;;;;;;4.82;3.15;;;8.20;99.90;;;;;;5013806;28;20029;-53
2022/09/22 03:49:18;;;;;;;3.83;3.33;;;8.20;99.90;;;;;;5013500;28;20037;-56
2022/09/22 03:51:44;;;;;;;4.63;3.53;;;8.20;99.90;;;;;;5013626;28;20034;-56
2022/09/22 03:54:09;;;;;;;3.80;3.47;;;8.10;99.90;;;;;;5028510;28;20052;-57
2022/09/22 03:56:35;;;;;;;4.25;3.60;;;8.20;99.90;;;;;;5013789;28;20032;-55
2022/09/22 03:59:00;;;;;;;6.40;4.05;;;8.10;99.90;;;;;;5028653;28;20034;-58
2022/09/22 04:01:26;;;;;;;4.25;3.35;;;8.10;99.90;;;;;;5013632;28;20034;-56
2022/09/22 04:03:51;;;;;;;4.13;3.72;;;8.10;99.90;;;;;;5012909;28;20026;-54
2022/09/22 04:06:17;;;;;;;9.38;3.63;;;8.10;99.90;;;;;;5013346;28;20499;-56
2022/09/22 04:08:42;;;;;;;4.18;3.33;;;8.00;99.90;;;;;;5012900;28;20091;-57
2022/09/22 04:11:08;;;;;;;4.10;3.40;;;8.00;99.90;;;;;;5013183;28;20053;-55
2022/09/22 04:13:34;;;;;;;3.80;3.40;;;7.90;99.90;;;;;;5013153;28;20041;-55
2022/09/22 04:16:01;;;;;;;5.70;3.65;;;7.90;99.90;;;;;;5013215;28;20460;-56
2022/09/22 04:18:27;;;;;;;4.57;3.58;;;7.80;99.90;;;;;;5011756;28;20112;-56
2022/09/22 04:20:57;;;;;;;6.88;4.10;;;7.80;99.90;;;;;;5028037;28;20022;-52
2022/09/22 04:23:23;;;;;;;5.38;3.60;;;7.80;99.90;;;;;;5012738;28;20489;-56
2022/09/22 04:25:48;;;;;;;5.85;3.80;;;7.70;99.90;;;;;;5028024;28;20018;-53
2022/09/22 04:28:14;;;;;;;5.93;4.07;;;7.70;99.90;;;;;;5012889;28;20030;-51
2022/09/22 04:30:39;;;;;;;3.75;3.40;;;7.70;99.90;;;;;;5012671;28;20029;-54
2022/09/22 04:33:05;;;;;;;7.25;3.95;;;7.70;99.90;;;;;;5013103;28;20022;-57
2022/09/22 04:35:32;;;;;;;4.60;3.65;;;7.70;99.90;;;;;;5012709;28;20026;-55
2022/09/22 04:37:57;;;;;;;10.70;4.93;;;7.70;99.90;;;;;;5012750;28;20388;-58
2022/09/22 04:40:23;;;;;;;10.10;4.05;;;7.60;99.90;;;;;;5012171;28;20093;-52
2022/09/22 04:42:49;;;;;;;5.40;3.72;;;7.60;99.90;;;;;;5012330;28;20454;-56
2022/09/22 04:45:15;;;;;;;5.13;4.28;;;7.60;99.90;;;;;;5027648;28;20022;-57
2022/09/22 04:47:45;;;;;;;4.80;3.60;;;7.60;99.90;;;;;;5012980;28;20217;-55
2022/09/22 04:50:11;;;;;;;7.05;4.07;;;7.60;99.90;;;;;;5012472;28;20025;-58
2022/09/22 04:52:37;;;;;;;5.28;3.70;;;7.60;99.90;;;;;;5012254;28;20125;-54
2022/09/22 04:55:03;;;;;;;9.27;4.45;;;7.60;99.90;;;;;;5012327;28;20569;-55
2022/09/22 04:57:28;;;;;;;6.32;3.72;;;7.50;99.90;;;;;;5027576;28;20025;-54
2022/09/22 04:59:54;;;;;;;6.80;4.38;;;7.50;99.90;;;;;;5012150;28;20141;-55
2022/09/22 05:02:19;;;;;;;5.43;3.80;;;7.60;99.90;;;;;;5027299;28;20113;-53
2022/09/22 05:04:45;;;;;;;8.07;4.75;;;7.50;99.90;;;;;;5013252;28;20593;-55
2022/09/22 05:07:10;;;;;;;5.47;4.20;;;7.50;99.90;;;;;;5027504;28;20025;-59
2022/09/22 05:09:36;;;;;;;7.85;4.80;;;7.50;99.90;;;;;;5012128;28;20029;-53
2022/09/22 05:12:01;;;;;;;7.22;4.07;;;7.40;99.90;;;;;;5012030;28;20101;-55
2022/09/22 05:14:28;;;;;;;8.15;3.78;;;7.40;99.90;;;;;;5012044;28;20497;-56
2022/09/22 05:16:54;;;;;;;6.80;4.25;;;7.40;99.90;;;;;;5012028;28;20157;-51
2022/09/22 05:19:20;;;;;;;5.90;3.97;;;7.40;99.90;;;;;;5010340;28;20065;-58
2022/09/22 05:21:45;;;;;;;5.22;4.40;;;7.40;99.90;;;;;;5011866;28;20104;-56
2022/09/22 05:24:11;;;;;;;7.85;4.95;;;7.50;99.90;;;;;;5011907;28;20085;-54
2022/09/22 05:26:36;;;;;;;6.13;3.63;;;7.40;99.90;;;;;;5011983;28;20025;-54
2022/09/22 05:29:03;;;;;;;5.78;4.65;;;7.50;99.90;;;;;;5011706;28;20018;-59
2022/09/22 05:31:28;;;;;;;5.85;4.40;;;7.50;99.90;;;;;;5011857;28;20022;-57
2022/09/22 05:33:54;;;;;;;6.93;4.03;;;7.50;99.90;;;;;;5011702;28;20036;-49
2022/09/22 05:36:19;;;;;;;5.88;4.13;;;7.50;99.90;;;;;;5011045;28;20029;-48
2022/09/22 05:38:45;;;;;;;4.85;3.97;;;7.60;99.90;;;;;;5011347;28;20029;-53
2022/09/22 05:41:10;;;;;;;4.97;4.32;;;7.60;99.90;;;;;;5011600;28;20393;-55
2022/09/22 05:43:36;;;;;;;7.50;3.95;;;7.70;99.90;;;;;;5010281;28;20022;-50
2022/09/22 05:46:01;;;;;;;7.35;3.92;;;7.70;99.90;;;;;;5011418;28;20040;-52
2022/09/22 05:48:27;;;;;;;7.63;3.55;;;7.80;99.90;;;;;;5011632;28;20026;-56
2022/09/22 05:50:52;;;;;;;6.65;4.50;;;7.80;99.90;;;;;;5011624;28;20032;-55
2022/09/22 05:53:18;;;;;;;4.38;3.95;;;8.00;99.90;;;;;;5008380;28;20027;-57
2022/09/22 05:55:43;;;;;;;10.40;5.57;;;8.00;99.90;;;;;;4990596;28;20029;-58
2022/09/22 05:58:13;;;;;;;8.65;4.38;;;8.10;99.90;;;;;;4999995;28;20389;-54
2022/09/22 06:00:39;;;;;;;5.57;4.13;;;8.20;99.90;;;;;;5011238;28;20168;-56
2022/09/22 06:03:05;;;;;;;5.82;3.80;;;8.20;99.90;;;;;;5010699;28;20026;-56
2022/09/22 06:05:30;;;;;;;5.63;3.65;;;8.30;99.90;;;;;;5010546;28;20030;-57
2022/09/22 06:08:02;;;;;;;8.10;4.32;;;8.30;99.90;;;;;;5011478;28;20028;-53
2022/09/22 06:10:30;;;;;;;5.00;4.03;;;8.30;99.90;;;;;;5010168;28;20068;-58
2022/09/22 06:13:03;;;;;;;5.93;4.43;;;8.40;99.90;;;;;;5011249;28;20026;-54
2022/09/22 06:15:32;;;;;;;6.63;4.03;;;8.40;99.90;;;;;;5010358;28;20121;-52
2022/09/22 06:17:58;;;;;;;10.00;4.30;;;8.40;99.90;;;;;;5011087;28;20084;-57
2022/09/22 06:20:24;;;;;;;7.22;3.70;;;8.50;99.90;;;;;;5010065;28;20129;-56
2022/09/22 06:22:49;;;;;;;7.05;4.18;;;8.50;99.90;;;;;;5009777;28;20307;-55
2022/09/22 06:25:15;;;;;;;5.20;3.47;;;8.60;99.90;;;;;;5011370;28;20026;-57
2022/09/22 06:27:41;;;;;;;5.85;3.88;;;8.80;99.90;;;;;;5009988;28;20446;-59
2022/09/22 06:30:10;;;;;;;5.90;3.92;;;8.90;99.90;;;;;;5011762;28;20022;-56
2022/09/22 06:32:38;;;;;;;4.07;3.65;;;9.30;99.90;;;;;;5014795;28;20032;-51
2022/09/22 06:35:05;;;;;;;5.32;3.40;;;9.90;99.90;;;;;;5014962;28;20030;-55
2022/09/22 06:37:31;;;;;;;12.57;3.38;;;10.60;99.90;;;;;;5014883;28;20552;-55
2022/09/22 06:39:57;;;;;;;4.35;3.35;;;11.20;99.90;;;;;;5014896;28;20084;-54
2022/09/22 06:42:22;;;;;;;2.80;2.60;;;11.90;99.90;;;;;;5014557;28;20113;-57
2022/09/22 06:44:48;;;;;;;4.80;3.25;;;12.60;99.90;;;;;;5013534;28;20025;-53
2022/09/22 06:47:14;;;;;;;4.53;3.40;;;13.10;99.90;;;;;;5015052;28;20018;-53
2022/09/22 06:49:41;;;;;;;3.17;2.88;;;13.70;99.90;;;;;;5013477;28;20105;-57
2022/09/22 06:52:11;;;;;;;2.67;2.30;;;14.10;99.90;;;;;;5014742;28;20512;-56
2022/09/22 06:54:40;;;;;;;3.22;2.33;;;14.30;99.90;;;;;;5014698;28;20041;-55
2022/09/22 06:57:10;;;;;;;6.70;2.85;;;14.80;99.90;;;;;;5013338;28;20029;-62
2022/09/22 06:59:36;;;;;;;3.22;2.55;;;15.00;99.90;;;;;;5014454;28;20049;-54
2022/09/22 07:02:03;;;;;;;3.42;2.50;;;15.10;99.90;;;;;;5014042;28;20371;-57
2022/09/22 07:04:28;;;;;;;3.40;3.10;;;15.40;99.90;;;;;;5014269;28;20030;-54
2022/09/22 07:06:54;;;;;;;4.75;3.00;;;15.40;99.90;;;;;;5014637;28;20026;-55
2022/09/22 07:09:20;;;;;;;3.50;2.50;;;15.60;99.90;;;;;;5014371;28;20025;-55
2022/09/22 07:11:47;;;;;;;4.07;2.70;;;15.60;99.90;;;;;;5013096;28;20120;-49
2022/09/22 07:14:13;;;;;;;5.00;2.65;;;15.90;99.90;;;;;;5008621;28;20032;-57
2022/09/22 07:16:39;;;;;;;12.85;3.90;;;16.50;99.20;;;;;;5013336;28;20108;-56
2022/09/22 07:19:05;;;;;;;5.22;2.50;;;16.70;98.40;;;;;;5013984;28;20105;-58
2022/09/22 07:21:35;;;;;;;4.22;2.58;;;16.80;98.70;;;;;;5014211;28;20034;-56
2022/09/22 07:24:01;;;;;;;7.93;2.63;;;17.00;98.60;;;;;;5012163;28;20065;-51
2022/09/22 07:26:31;;;;;;;4.50;2.33;;;17.00;97.80;;;;;;5013771;28;20018;-54
2022/09/22 07:28:58;;;;;;;3.53;2.22;;;16.90;98.20;;;;;;5012881;28;20060;-51
2022/09/22 07:31:25;;;;;;;3.88;3.20;;;16.80;98.30;;;;;;5012781;28;20030;-51
2022/09/22 07:33:52;;;;;;;5.53;2.55;;;16.70;98.40;;;;;;5011918;28;20537;-51
2022/09/22 07:36:20;;;;;;;3.13;2.50;;;17.00;98.30;;;;;;5013161;28;20037;-56
2022/09/22 07:38:48;;;;;;;6.90;2.35;;;17.10;97.20;;;;;;5013306;28;20034;-57
2022/09/22 07:41:21;;;;;;;4.13;2.53;;;17.00;97.80;;;;;;5011510;28;20037;-54
2022/09/22 07:45:11;;;;;;;6.00;2.28;;;17.20;97.80;;;;;;4993202;28;20030;-52
2022/09/22 07:46:46;;;;;;;6.40;2.63;;;17.00;97.70;;;;;;5007748;28;20034;-54
2022/09/22 07:49:14;;;;;;;4.97;3.05;;;15.90;99.10;;;;;;5012947;28;20034;-54
2022/09/22 07:51:40;;;;;;;6.03;2.63;;;15.00;99.90;;;;;;5013698;28;20037;-58
2022/09/22 07:54:08;;;;;;;3.42;2.95;;;14.20;99.90;;;;;;5012947;28;20464;-52
2022/09/22 07:56:35;;;;;;;5.30;2.80;;;13.80;99.90;;;;;;5013644;28;20461;-54
2022/09/22 07:59:03;;;;;;;9.32;3.28;;;13.30;99.90;;;;;;5009888;28;20056;-58
2022/09/22 08:01:33;;;;;;;5.05;3.03;;;12.90;99.90;;;;;;5011780;28;20037;-55
2022/09/22 08:03:59;;;;;;;3.58;2.88;;;12.60;99.90;;;;;;5011617;28;20084;-55
2022/09/22 08:06:24;;;;;;;4.65;2.85;;;12.40;99.90;;;;;;5013532;28;20026;-55
2022/09/22 08:08:54;;;;;;;5.35;3.10;;;12.20;99.90;;;;;;5013390;28;20041;-53
2022/09/22 08:11:23;;;;;;;6.85;3.08;;;12.10;99.90;;;;;;5008318;28;20026;-55
2022/09/22 08:13:58;;;;;;;3.75;3.03;;;12.10;99.90;;;;;;5002000;28;20034;-54
2022/09/22 08:16:26;;;;;;;;;;;12.00;99.90;;;;;;5013454;28;20401;-59
2022/09/22 08:18:54;;;;;;;5.82;3.15;;;12.10;99.90;;;;;;5012745;28;19940;-57
2022/09/22 08:21:21;;;;;;;4.18;3.30;;;12.10;99.90;;;;;;5011821;28;20022;-53
2022/09/22 08:23:50;;;;;;;8.05;3.42;;;12.20;99.90;;;;;;5011748;28;20026;-53
2022/09/22 08:26:15;;;;;;;10.13;3.17;;;12.20;99.90;;;;;;5013493;28;20493;-53
2022/09/22 08:28:41;;;;;;;3.92;3.47;;;12.30;99.90;;;;;;5011387;28;20066;-55
2022/09/22 08:31:11;;;;;;;3.30;2.63;;;12.30;99.90;;;;;;5012664;28;20076;-51
2022/09/22 08:33:39;;;;;;;4.85;3.25;;;12.40;99.90;;;;;;5011977;28;20394;-51
2022/09/22 08:36:05;;;;;;;5.93;3.42;;;12.40;99.90;;;;;;4995379;28;20113;-55
2022/09/22 08:38:32;;;;;;;3.75;2.95;;;12.50;99.90;;;;;;4991697;28;20022;-53
2022/09/22 08:41:14;;;;;;;4.13;3.25;;;12.50;99.90;;;;;;4993031;28;20026;-52
2022/09/22 08:43:51;;;;;;;5.55;2.85;;;12.60;99.90;;;;;;5010302;28;20168;-53
2022/09/22 08:46:17;;;;;;;6.43;3.22;;;12.60;99.90;;;;;;5010870;28;20037;-54
2022/09/22 08:51:51;;;;;;;3.60;2.30;;;13.00;99.90;;;;;;5009705;28;20117;-56
2022/09/22 08:54:19;;;;;;;2.65;2.45;;;14.40;99.90;;;;;;4991353;28;20533;-53
2022/09/22 08:57:09;;;;;;;5.55;2.75;;;16.20;99.90;;;;;;5009396;28;20025;-55
2022/09/22 08:59:56;;;;;;;4.72;2.13;;;17.80;99.10;;;;;;4997590;28;20105;-56
2022/09/22 09:02:31;;;;;;;3.00;2.47;;;19.00;97.30;;;;;;5011723;28;20092;-50
2022/09/22 09:05:22;;;;;;;2.75;2.10;;;19.90;95.80;;;;;;5011993;28;20030;-50
2022/09/22 09:08:19;;;;;;;4.68;2.40;;;20.30;95.60;;;;;;5002400;28;20030;-48
2022/09/22 09:10:56;;;;;;;2.47;1.70;;;21.30;93.50;;;;;;5010558;28;20416;-50
2022/09/22 09:13:42;;;;;;;4.72;1.88;;;21.70;92.50;;;;;;5011627;28;20104;-52
2022/09/22 09:16:44;;;;;;;2.38;1.55;;;22.40;91.30;;;;;;5011687;28;20172;-52
2022/09/22 09:19:28;;;;;;;3.83;1.90;;;22.70;91.30;;;;;;5011471;28;20080;-52
2022/09/22 09:21:59;;;;;;;7.03;1.92;;;22.90;89.90;;;;;;5011641;28;20112;-50
2022/09/22 09:24:31;;;;;;;3.22;1.67;;;23.20;89.20;;;;;;5011272;28;20026;-56
2022/09/22 09:27:07;;;;;;;6.13;1.90;;;23.50;87.60;;;;;;5007363;28;20042;-52
2022/09/22 09:29:59;;;;;;;3.25;1.60;;;23.60;87.50;;;;;;5011524;28;20026;-61
2022/09/22 09:32:36;;;;;;;6.43;1.90;;;23.60;87.20;;;;;;5003075;28;20555;-53
2022/09/22 09:35:03;;;;;;;1.90;1.70;;;23.20;86.20;;;;;;5011111;28;20453;-51
2022/09/22 09:37:29;;;;;;;6.22;2.55;;;22.40;88.20;;;;;;5011764;28;20409;-48
2022/09/22 09:40:00;;;;;;;6.93;1.65;;;21.90;88.80;;;;;;5012569;28;20037;-51
2022/09/22 09:42:30;;;;;;;3.08;1.75;;;20.90;89.00;;;;;;5028776;28;20072;-55
2022/09/22 09:45:01;;;;;;;2.38;1.90;;;20.20;90.20;;;;;;5013143;28;20424;-51
2022/09/22 09:48:05;;;;;;;4.63;1.77;;;19.90;91.10;;;;;;5012129;28;20493;-50
2022/09/22 09:50:31;;;;;;;7.03;1.65;;;19.80;91.40;;;;;;4974138;28;20042;-49
2022/09/22 09:52:59;;;;;;;3.50;1.50;;;19.50;91.20;;;;;;4999848;28;20030;-48
2022/09/22 09:55:25;;;;;;;3.95;1.85;;;19.40;91.00;;;;;;5011157;28;20057;-50
2022/09/22 09:58:08;;;;;;;2.33;2.13;;;19.50;92.00;;;;;;5011077;28;20061;-54
2022/09/22 10:00:51;;;;;;;9.23;1.55;;;19.50;91.80;;;;;;5011342;28;20057;-50
2022/09/22 10:03:27;;;;;;;2.13;1.70;;;19.30;91.60;;;;;;5010702;28;20049;-50
2022/09/22 10:06:05;;;;;;;4.78;1.58;;;19.30;92.30;;;;;;5012329;28;20041;-54
2022/09/22 10:08:35;;;;;;;2.97;1.63;;;19.30;91.70;;;;;;5013964;28;20018;-53
2022/09/22 10:11:02;;;;;;;3.78;1.67;;;19.10;91.70;;;;;;5015140;28;20504;-51
2022/09/22 10:13:36;;;;;;;3.08;2.78;;;19.20;92.30;;;;;;5014879;28;20034;-54
2022/09/22 10:16:23;;;;;;;3.40;2.78;;;19.00;92.70;;;;;;5014872;28;20025;-50
2022/09/22 10:18:58;;;;;;;3.40;1.80;;;18.90;93.20;;;;;;5012008;28;20084;-54
2022/09/22 10:21:25;;;;;;;5.77;2.97;;;18.90;93.10;;;;;;5011486;28;20030;-53
2022/09/22 10:23:50;;;;;;;3.30;1.77;;;18.80;92.90;;;;;;5014813;28;20048;-51
2022/09/22 10:26:20;;;;;;;6.55;1.77;;;18.70;93.80;;;;;;5015163;28;20026;-51
2022/09/22 10:29:10;;;;;;;7.82;2.53;;;18.50;93.80;;;;;;5015028;28;20028;-54
2022/09/22 10:31:37;;;;;;;5.15;1.70;;;18.50;93.10;;;;;;5014969;28;20025;-53
2022/09/22 10:34:05;;;;;;;3.97;2.60;;;18.40;93.00;;;;;;5014971;28;20394;-53
2022/09/22 10:36:32;;;;;;;4.72;1.70;;;18.30;93.00;;;;;;5020652;28;20100;-52
2022/09/22 10:38:57;;;;;;;3.70;1.70;;;18.20;92.60;;;;;;5014518;28;20030;-51
2022/09/22 10:41:30;;;;;;;2.33;1.98;;;18.10;92.50;;;;;;5014660;28;20078;-50
2022/09/22 10:44:17;;;;;;;5.80;2.05;;;17.90;93.50;;;;;;5017821;28;20084;-48
2022/09/22 10:47:16;;;;;;;6.43;1.80;;;17.80;93.60;;;;;;5014821;28;20088;-53
2022/09/22 10:50:19;;;;;;;3.72;1.75;;;17.80;93.50;;;;;;5014024;28;20069;-51
2022/09/22 10:52:56;;;;;;;1.55;1.45;;;17.80;93.80;;;;;;5014329;28;20041;-55
2022/09/22 10:55:38;;;;;;;1.92;1.30;;;17.80;93.40;;;;;;5013163;28;20402;-52
2022/09/22 10:58:03;;;;;;;5.43;1.60;;;17.80;93.40;;;;;;5014712;28;20390;-53
2022/09/22 11:00:36;;;;;;;2.65;1.00;;;17.60;93.00;;;;;;5012474;28;20037;-50
2022/09/22 11:03:23;;;;;;;8.00;1.20;;;17.50;92.60;;;;;;5013903;28;20473;-55
2022/09/22 11:12:46;;;;;;;1.85;1.35;;;17.30;92.20;;;;;;5014442;28;20125;-49
2022/09/22 11:15:41;;;;;;;4.85;1.65;;;17.30;93.30;;;;;;5001246;28;20037;-50
2022/09/22 11:18:34;;;;;;;1.65;1.20;;;17.50;92.60;;;;;;5013036;28;20498;-53
2022/09/22 11:21:13;;;;;;;2.67;1.40;;;17.60;93.30;;;;;;5014411;28;20021;-49
2022/09/22 11:23:58;;;;;;;2.78;1.25;;;17.60;93.20;;;;;;5000561;28;20103;-51
2022/09/22 11:26:47;;;;;;;2.22;1.27;;;17.70;93.20;;;;;;5014149;28;20117;-50
2022/09/22 11:29:40;;;;;;;1.98;0.90;;;17.60;92.60;;;;;;5014266;28;20061;-49
2022/09/22 11:32:36;;;;;;;0.95;0.95;;;17.60;90.60;;;;;;5012297;28;20025;-48
2022/09/22 11:35:26;;;;;;;2.67;1.30;;;17.60;92.40;;;;;;5012426;28;20025;-50
2022/09/22 11:38:12;;;;;;;2.10;1.35;;;17.60;92.20;;;;;;5012387;28;20117;-52
2022/09/22 11:40:38;;;;;;;2.35;1.25;;;17.60;91.10;;;;;;5012280;28;20030;-51
2022/09/22 11:43:19;;;;;;;1.83;1.00;;;17.60;90.70;;;;;;5015421;28;20112;-50
2022/09/22 11:45:50;;;;;;;3.22;0.95;;;17.60;90.90;;;;;;5015169;28;20030;-55
2022/09/22 11:48:43;;;;;;;2.20;1.05;;;17.50;90.50;;;;;;5018143;28;20029;-55
2022/09/22 11:51:51;;;;;;;2.53;1.20;;;17.50;91.10;;;;;;5018072;28;20133;-54
2022/09/22 11:54:46;;;;;;;4.57;2.00;;;17.50;91.70;;;;;;5018649;28;20080;-54
2022/09/22 11:57:15;;;;;;;1.85;1.15;;;17.50;91.60;;;;;;5018340;28;20022;-53
2022/09/22 11:59:50;;;;;;;0.93;0.90;;;17.50;92.50;;;;;;5016711;28;20054;-55
2022/09/22 12:02:20;;;;;;;2.17;1.30;;;17.40;92.80;;;;;;5012168;28;20026;-45
2022/09/22 12:04:51;;;;;;;7.30;1.02;;;17.30;92.90;;;;;;5011561;28;20040;-45
2022/09/22 12:07:26;;;;;;;4.00;1.42;;;17.40;93.90;;;;;;5011099;28;20453;-46
2022/09/22 12:10:01;;;;;;;4.93;2.13;;;17.50;93.50;;;;;;5012666;28;20022;-50
2022/09/22 12:12:31;;;;;;;5.95;1.10;;;17.40;93.40;;;;;;5012738;28;20037;-46
2022/09/22 12:15:05;;;;;;;2.53;1.20;;;17.50;93.60;;;;;;5012254;28;20026;-46
2022/09/22 12:17:50;;;;;;;1.85;0.90;;;17.60;93.30;;;;;;5012974;28;20080;-47
2022/09/22 12:20:31;;;;;;;3.95;0.98;;;17.60;90.70;;;;;;5011780;28;20057;-54
2022/09/22 12:23:26;;;;;;;4.60;1.00;;;17.60;90.00;;;;;;5012817;28;20029;-52
2022/09/22 12:26:03;;;;;;;4.07;1.17;;;17.70;88.50;;;;;;5012756;28;20022;-52
2022/09/22 12:28:31;;;;;;;6.05;1.15;;;17.70;88.10;;;;;;5012109;28;20061;-50
2022/09/22 12:31:09;;;;;;;1.00;0.90;;;17.70;89.10;;;;;;5012820;28;20029;-50
2022/09/22 12:33:37;;;;;;;1.33;0.80;;;17.70;88.50;;;;;;5012552;28;20589;-54
2022/09/22 12:36:04;;;;;;;4.18;1.00;;;17.70;89.20;;;;;;5013048;28;20049;-55
2022/09/22 12:38:30;;;;;;;1.98;0.90;;;17.60;90.10;;;;;;5012842;28;20022;-50
2022/09/22 12:41:01;;;;;;;1.27;1.17;;;17.80;89.90;;;;;;5012799;28;20516;-50
2022/09/22 12:43:27;;;;;;;2.08;0.65;;;17.80;89.00;;;;;;5012436;28;20026;-53
2022/09/22 12:45:54;;;;;;;3.50;1.27;;;17.80;88.30;;;;;;5012419;28;20040;-49
2022/09/22 12:48:29;;;;;;;1.35;0.80;;;17.80;88.80;;;;;;5012688;28;20026;-52
2022/09/22 12:51:23;;;;;;;1.27;0.88;;;17.80;87.50;;;;;;5012818;28;20394;-52
2022/09/22 12:53:48;;;;;;;1.58;1.02;;;17.80;87.50;;;;;;5012185;28;20021;-51
2022/09/22 12:56:51;;;;;;;0.85;0.85;;;17.80;88.00;;;;;;5012835;28;20508;-48
2022/09/22 12:59:35;;;;;;;2.28;1.08;;;17.80;86.30;;;;;;5012896;28;20086;-54
2022/09/22 13:02:13;;;;;;;2.35;0.95;;;17.90;85.30;;;;;;5011900;28;20030;-50
2022/09/22 13:04:39;;;;;;;2.40;0.90;;;17.90;87.20;;;;;;5012202;28;20034;-49
2022/09/22 13:07:35;;;;;;;1.48;0.77;;;18.00;88.50;;;;;;5012367;28;20021;-50
2022/09/22 13:10:22;;;;;;;1.00;0.77;;;18.10;86.50;;;;;;5012262;28;20026;-51
2022/09/22 13:13:04;;;;;;;1.55;1.40;;;18.10;85.40;;;;;;5012705;28;20026;-51
2022/09/22 13:15:53;;;;;;;5.63;0.80;;;18.00;83.00;;;;;;5013158;28;20026;-51
2022/09/22 13:18:38;;;;;;;1.55;0.88;;;18.00;84.40;;;;;;5012367;28;20493;-49
2022/09/22 13:21:12;;;;;;;1.17;0.82;;;18.10;86.30;;;;;;5010242;28;20559;-47
2022/09/22 13:23:50;;;;;;;2.17;1.15;;;18.10;87.90;;;;;;5012696;28;20489;-50
2022/09/22 13:26:28;;;;;;;1.00;0.90;;;18.00;86.80;;;;;;5012600;28;20052;-52
2022/09/22 13:29:10;;;;;;;2.22;1.00;;;17.90;87.00;;;;;;5012242;28;20413;-50
2022/09/22 13:31:44;;;;;;;2.42;0.70;;;18.00;84.20;;;;;;5011787;28;20793;-53
2022/09/22 13:34:30;;;;;;;1.35;1.23;;;18.00;85.60;;;;;;5011945;28;20497;-50